sensor_id;sensor_type;location;lat;lon;timestamp;temperature;humidity
42663;DHT22;44330;51.360;6.686;2023-08-24T00:01:52;18.80;62.60
42663;DHT22;44330;51.360;6.686;2023-08-24T00:04:17;18.70;62.50
42663;DHT22;44330;51.360;6.686;2023-08-24T00:06:43;18.70;63.70
42663;DHT22;44330;51.360;6.686;2023-08-24T00:09:08;18.70;63.70
42663;DHT22;44330;51.360;6.686;2023-08-24T00:11:34;18.60;64.80
42663;DHT22;44330;51.360;6.686;2023-08-24T00:13:59;18.60;66.20
42663;DHT22;44330;51.360;6.686;2023-08-24T00:16:25;18.60;66.90
42663;DHT22;44330;51.360;6.686;2023-08-24T00:18:50;18.60;67.30
42663;DHT22;44330;51.360;6.686;2023-08-24T00:21:16;18.60;67.90
42663;DHT22;44330;51.360;6.686;2023-08-24T00:23:48;18.60;68.20
42663;DHT22;44330;51.360;6.686;2023-08-24T00:26:14;18.50;68.90
42663;DHT22;44330;51.360;6.686;2023-08-24T00:28:42;18.50;69.20
42663;DHT22;44330;51.360;6.686;2023-08-24T00:31:08;18.50;69.70
42663;DHT22;44330;51.360;6.686;2023-08-24T00:33:33;18.50;70.00
42663;DHT22;44330;51.360;6.686;2023-08-24T00:35:59;18.40;70.30
42663;DHT22;44330;51.360;6.686;2023-08-24T00:38:25;18.40;70.60
42663;DHT22;44330;51.360;6.686;2023-08-24T00:40:51;18.40;70.80
42663;DHT22;44330;51.360;6.686;2023-08-24T00:43:18;18.40;71.80
42663;DHT22;44330;51.360;6.686;2023-08-24T00:45:47;18.30;72.00
42663;DHT22;44330;51.360;6.686;2023-08-24T00:48:12;18.30;72.60
42663;DHT22;44330;51.360;6.686;2023-08-24T00:50:38;18.20;72.80
42663;DHT22;44330;51.360;6.686;2023-08-24T00:53:03;18.20;73.30
42663;DHT22;44330;51.360;6.686;2023-08-24T00:55:29;18.20;73.70
42663;DHT22;44330;51.360;6.686;2023-08-24T00:57:55;18.10;74.20
42663;DHT22;44330;51.360;6.686;2023-08-24T01:00:21;18.10;74.90
42663;DHT22;44330;51.360;6.686;2023-08-24T01:02:47;18.10;75.60
42663;DHT22;44330;51.360;6.686;2023-08-24T01:05:12;18.00;76.50
42663;DHT22;44330;51.360;6.686;2023-08-24T01:07:39;18.10;76.70
42663;DHT22;44330;51.360;6.686;2023-08-24T01:10:05;18.00;76.90
42663;DHT22;44330;51.360;6.686;2023-08-24T01:12:36;18.00;77.20
42663;DHT22;44330;51.360;6.686;2023-08-24T01:15:11;18.00;77.40
42663;DHT22;44330;51.360;6.686;2023-08-24T01:17:38;18.00;77.60
42663;DHT22;44330;51.360;6.686;2023-08-24T01:20:04;18.00;77.90
42663;DHT22;44330;51.360;6.686;2023-08-24T01:22:37;17.90;78.20
42663;DHT22;44330;51.360;6.686;2023-08-24T01:25:08;17.90;78.20
42663;DHT22;44330;51.360;6.686;2023-08-24T01:27:36;17.90;77.70
42663;DHT22;44330;51.360;6.686;2023-08-24T01:30:02;17.90;77.80
42663;DHT22;44330;51.360;6.686;2023-08-24T01:32:35;17.90;77.40
42663;DHT22;44330;51.360;6.686;2023-08-24T01:35:05;17.90;77.10
42663;DHT22;44330;51.360;6.686;2023-08-24T01:37:31;17.80;76.80
42663;DHT22;44330;51.360;6.686;2023-08-24T01:40:03;17.80;76.70
42663;DHT22;44330;51.360;6.686;2023-08-24T01:43:20;17.80;76.20
42663;DHT22;44330;51.360;6.686;2023-08-24T01:45:27;17.80;75.80
42663;DHT22;44330;51.360;6.686;2023-08-24T01:47:53;17.80;75.70
42663;DHT22;44330;51.360;6.686;2023-08-24T01:50:19;17.70;75.40
42663;DHT22;44330;51.360;6.686;2023-08-24T01:52:45;17.60;75.80
42663;DHT22;44330;51.360;6.686;2023-08-24T01:55:11;17.60;76.20
42663;DHT22;44330;51.360;6.686;2023-08-24T01:57:37;17.50;76.50
42663;DHT22;44330;51.360;6.686;2023-08-24T02:00:03;17.60;77.20
42663;DHT22;44330;51.360;6.686;2023-08-24T02:02:31;17.60;78.10
42663;DHT22;44330;51.360;6.686;2023-08-24T02:04:58;17.50;78.40
42663;DHT22;44330;51.360;6.686;2023-08-24T02:07:24;17.50;79.50
42663;DHT22;44330;51.360;6.686;2023-08-24T02:09:49;17.50;80.00
42663;DHT22;44330;51.360;6.686;2023-08-24T02:12:15;17.40;80.20
42663;DHT22;44330;51.360;6.686;2023-08-24T02:14:40;17.40;80.60
42663;DHT22;44330;51.360;6.686;2023-08-24T02:17:06;17.40;80.80
42663;DHT22;44330;51.360;6.686;2023-08-24T02:19:31;17.40;81.00
42663;DHT22;44330;51.360;6.686;2023-08-24T02:21:57;17.30;81.20
42663;DHT22;44330;51.360;6.686;2023-08-24T02:24:23;17.30;81.30
42663;DHT22;44330;51.360;6.686;2023-08-24T02:26:48;17.30;81.50
42663;DHT22;44330;51.360;6.686;2023-08-24T02:29:14;17.30;81.60
42663;DHT22;44330;51.360;6.686;2023-08-24T02:31:39;17.20;81.70
42663;DHT22;44330;51.360;6.686;2023-08-24T02:34:06;17.20;81.80
42663;DHT22;44330;51.360;6.686;2023-08-24T02:36:31;17.20;81.90
42663;DHT22;44330;51.360;6.686;2023-08-24T02:39:01;17.20;82.40
42663;DHT22;44330;51.360;6.686;2023-08-24T02:41:26;17.10;82.40
42663;DHT22;44330;51.360;6.686;2023-08-24T02:43:52;17.20;82.60
42663;DHT22;44330;51.360;6.686;2023-08-24T02:46:18;17.20;82.90
42663;DHT22;44330;51.360;6.686;2023-08-24T02:48:44;17.20;83.10
42663;DHT22;44330;51.360;6.686;2023-08-24T02:51:09;17.20;83.40
42663;DHT22;44330;51.360;6.686;2023-08-24T02:53:35;17.20;83.40
42663;DHT22;44330;51.360;6.686;2023-08-24T02:56:01;17.20;83.50
42663;DHT22;44330;51.360;6.686;2023-08-24T02:58:27;17.20;83.40
42663;DHT22;44330;51.360;6.686;2023-08-24T03:00:53;17.20;83.30
42663;DHT22;44330;51.360;6.686;2023-08-24T03:03:18;17.20;83.00
42663;DHT22;44330;51.360;6.686;2023-08-24T03:06:03;17.40;82.70
42663;DHT22;44330;51.360;6.686;2023-08-24T03:08:29;17.30;82.10
42663;DHT22;44330;51.360;6.686;2023-08-24T03:10:54;17.20;81.70
42663;DHT22;44330;51.360;6.686;2023-08-24T03:13:20;17.30;82.00
42663;DHT22;44330;51.360;6.686;2023-08-24T03:15:45;17.20;81.90
42663;DHT22;44330;51.360;6.686;2023-08-24T03:18:11;17.30;81.80
42663;DHT22;44330;51.360;6.686;2023-08-24T03:20:38;17.20;82.00
42663;DHT22;44330;51.360;6.686;2023-08-24T03:23:04;17.20;81.80
42663;DHT22;44330;51.360;6.686;2023-08-24T03:25:29;17.30;81.60
42663;DHT22;44330;51.360;6.686;2023-08-24T03:27:55;17.40;81.30
42663;DHT22;44330;51.360;6.686;2023-08-24T03:30:20;17.30;81.00
42663;DHT22;44330;51.360;6.686;2023-08-24T03:32:47;17.30;80.90
42663;DHT22;44330;51.360;6.686;2023-08-24T03:35:13;17.40;80.90
42663;DHT22;44330;51.360;6.686;2023-08-24T03:37:40;17.40;80.70
42663;DHT22;44330;51.360;6.686;2023-08-24T03:40:06;17.40;80.50
42663;DHT22;44330;51.360;6.686;2023-08-24T03:42:32;17.40;80.40
42663;DHT22;44330;51.360;6.686;2023-08-24T03:44:59;17.40;80.40
42663;DHT22;44330;51.360;6.686;2023-08-24T03:47:24;17.50;80.70
42663;DHT22;44330;51.360;6.686;2023-08-24T03:49:50;17.50;80.60
42663;DHT22;44330;51.360;6.686;2023-08-24T03:52:15;17.50;80.60
42663;DHT22;44330;51.360;6.686;2023-08-24T03:54:41;17.60;80.50
42663;DHT22;44330;51.360;6.686;2023-08-24T03:57:06;17.50;79.80
42663;DHT22;44330;51.360;6.686;2023-08-24T03:59:32;17.60;79.30
42663;DHT22;44330;51.360;6.686;2023-08-24T04:01:57;17.60;78.30
42663;DHT22;44330;51.360;6.686;2023-08-24T04:04:27;17.60;77.90
42663;DHT22;44330;51.360;6.686;2023-08-24T04:06:52;17.60;78.00
42663;DHT22;44330;51.360;6.686;2023-08-24T04:09:18;17.60;78.50
42663;DHT22;44330;51.360;6.686;2023-08-24T04:11:44;17.60;79.20
42663;DHT22;44330;51.360;6.686;2023-08-24T04:14:09;17.60;80.10
42663;DHT22;44330;51.360;6.686;2023-08-24T04:16:35;17.60;80.80
42663;DHT22;44330;51.360;6.686;2023-08-24T04:19:01;17.60;82.20
42663;DHT22;44330;51.360;6.686;2023-08-24T04:21:26;17.60;83.10
42663;DHT22;44330;51.360;6.686;2023-08-24T04:23:52;17.60;83.10
42663;DHT22;44330;51.360;6.686;2023-08-24T04:26:18;17.60;82.90
42663;DHT22;44330;51.360;6.686;2023-08-24T04:28:43;17.60;82.90
42663;DHT22;44330;51.360;6.686;2023-08-24T04:31:09;17.60;83.60
42663;DHT22;44330;51.360;6.686;2023-08-24T04:33:34;17.60;84.30
42663;DHT22;44330;51.360;6.686;2023-08-24T04:36:01;17.60;84.50
42663;DHT22;44330;51.360;6.686;2023-08-24T04:38:27;17.60;84.40
42663;DHT22;44330;51.360;6.686;2023-08-24T04:40:53;17.60;83.60
42663;DHT22;44330;51.360;6.686;2023-08-24T04:43:19;17.50;83.90
42663;DHT22;44330;51.360;6.686;2023-08-24T04:45:46;17.50;84.40
42663;DHT22;44330;51.360;6.686;2023-08-24T04:48:13;17.40;84.90
42663;DHT22;44330;51.360;6.686;2023-08-24T04:50:39;17.50;86.10
42663;DHT22;44330;51.360;6.686;2023-08-24T04:53:04;17.50;86.70
42663;DHT22;44330;51.360;6.686;2023-08-24T04:55:30;17.50;87.00
42663;DHT22;44330;51.360;6.686;2023-08-24T04:57:56;17.40;87.10
42663;DHT22;44330;51.360;6.686;2023-08-24T05:00:21;17.40;87.60
42663;DHT22;44330;51.360;6.686;2023-08-24T05:02:48;17.50;88.00
42663;DHT22;44330;51.360;6.686;2023-08-24T05:05:13;17.50;88.20
42663;DHT22;44330;51.360;6.686;2023-08-24T05:07:39;17.50;88.40
42663;DHT22;44330;51.360;6.686;2023-08-24T05:10:05;17.50;88.60
42663;DHT22;44330;51.360;6.686;2023-08-24T05:12:31;17.60;88.20
42663;DHT22;44330;51.360;6.686;2023-08-24T05:14:59;17.60;88.10
42663;DHT22;44330;51.360;6.686;2023-08-24T05:17:25;17.70;87.00
42663;DHT22;44330;51.360;6.686;2023-08-24T05:19:53;17.60;86.90
42663;DHT22;44330;51.360;6.686;2023-08-24T05:22:21;17.70;87.30
42663;DHT22;44330;51.360;6.686;2023-08-24T05:24:48;17.60;87.80
42663;DHT22;44330;51.360;6.686;2023-08-24T05:27:13;17.70;88.30
42663;DHT22;44330;51.360;6.686;2023-08-24T05:29:43;17.70;88.60
42663;DHT22;44330;51.360;6.686;2023-08-24T05:32:08;17.70;89.30
42663;DHT22;44330;51.360;6.686;2023-08-24T05:34:34;17.80;89.70
42663;DHT22;44330;51.360;6.686;2023-08-24T05:37:00;17.70;89.80
42663;DHT22;44330;51.360;6.686;2023-08-24T05:39:25;17.80;88.70
42663;DHT22;44330;51.360;6.686;2023-08-24T05:41:51;17.90;87.00
42663;DHT22;44330;51.360;6.686;2023-08-24T05:44:18;18.00;86.20
42663;DHT22;44330;51.360;6.686;2023-08-24T05:46:44;18.00;85.80
42663;DHT22;44330;51.360;6.686;2023-08-24T05:49:09;18.10;85.20
42663;DHT22;44330;51.360;6.686;2023-08-24T05:51:35;18.10;84.70
42663;DHT22;44330;51.360;6.686;2023-08-24T05:54:01;18.20;83.40
42663;DHT22;44330;51.360;6.686;2023-08-24T05:56:26;18.20;83.60
42663;DHT22;44330;51.360;6.686;2023-08-24T05:58:53;18.20;84.20
42663;DHT22;44330;51.360;6.686;2023-08-24T06:01:19;18.20;84.90
42663;DHT22;44330;51.360;6.686;2023-08-24T06:03:45;18.30;84.60
42663;DHT22;44330;51.360;6.686;2023-08-24T06:06:10;18.30;84.40
42663;DHT22;44330;51.360;6.686;2023-08-24T06:08:36;18.30;84.40
42663;DHT22;44330;51.360;6.686;2023-08-24T06:11:01;18.40;83.40
42663;DHT22;44330;51.360;6.686;2023-08-24T06:13:27;18.50;83.30
42663;DHT22;44330;51.360;6.686;2023-08-24T06:15:53;18.50;83.10
42663;DHT22;44330;51.360;6.686;2023-08-24T06:18:19;18.60;83.00
42663;DHT22;44330;51.360;6.686;2023-08-24T06:20:45;18.60;82.80
42663;DHT22;44330;51.360;6.686;2023-08-24T06:23:11;18.70;81.70
42663;DHT22;44330;51.360;6.686;2023-08-24T06:25:38;18.70;82.70
42663;DHT22;44330;51.360;6.686;2023-08-24T06:28:04;18.80;81.40
42663;DHT22;44330;51.360;6.686;2023-08-24T06:30:30;18.80;80.90
42663;DHT22;44330;51.360;6.686;2023-08-24T06:33:02;18.90;77.70
42663;DHT22;44330;51.360;6.686;2023-08-24T06:35:28;19.00;77.10
42663;DHT22;44330;51.360;6.686;2023-08-24T06:37:53;19.20;76.50
42663;DHT22;44330;51.360;6.686;2023-08-24T06:40:19;19.30;75.10
42663;DHT22;44330;51.360;6.686;2023-08-24T06:42:45;19.40;73.80
42663;DHT22;44330;51.360;6.686;2023-08-24T06:45:10;19.50;72.90
42663;DHT22;44330;51.360;6.686;2023-08-24T06:47:36;19.70;73.70
42663;DHT22;44330;51.360;6.686;2023-08-24T06:50:02;19.80;69.60
42663;DHT22;44330;51.360;6.686;2023-08-24T06:52:27;19.90;66.80
42663;DHT22;44330;51.360;6.686;2023-08-24T06:54:53;20.00;64.00
42663;DHT22;44330;51.360;6.686;2023-08-24T06:57:21;20.20;59.50
42663;DHT22;44330;51.360;6.686;2023-08-24T06:59:46;20.40;58.00
42663;DHT22;44330;51.360;6.686;2023-08-24T07:02:12;20.50;54.50
42663;DHT22;44330;51.360;6.686;2023-08-24T07:04:38;20.60;52.30
42663;DHT22;44330;51.360;6.686;2023-08-24T07:07:05;20.70;45.20
42663;DHT22;44330;51.360;6.686;2023-08-24T07:09:31;20.80;38.50
42663;DHT22;44330;51.360;6.686;2023-08-24T07:11:59;21.00;36.20
42663;DHT22;44330;51.360;6.686;2023-08-24T07:14:24;21.20;31.70
42663;DHT22;44330;51.360;6.686;2023-08-24T07:16:50;21.30;31.70
42663;DHT22;44330;51.360;6.686;2023-08-24T07:19:15;21.50;29.70
42663;DHT22;44330;51.360;6.686;2023-08-24T07:21:41;21.60;25.10
42663;DHT22;44330;51.360;6.686;2023-08-24T07:24:06;21.80;11.10
42663;DHT22;44330;51.360;6.686;2023-08-24T07:26:33;22.00;11.80
42663;DHT22;44330;51.360;6.686;2023-08-24T07:28:58;22.10;10.40
42663;DHT22;44330;51.360;6.686;2023-08-24T07:31:25;22.20;10.10
42663;DHT22;44330;51.360;6.686;2023-08-24T07:33:52;22.50;4.00
42663;DHT22;44330;51.360;6.686;2023-08-24T07:36:18;22.70;1.00
42663;DHT22;44330;51.360;6.686;2023-08-24T07:38:44;22.80;1.00
42663;DHT22;44330;51.360;6.686;2023-08-24T07:41:10;23.10;1.00
42663;DHT22;44330;51.360;6.686;2023-08-24T07:43:37;23.30;1.00
42663;DHT22;44330;51.360;6.686;2023-08-24T07:46:03;23.50;1.00
42663;DHT22;44330;51.360;6.686;2023-08-24T07:48:29;23.60;1.00
42663;DHT22;44330;51.360;6.686;2023-08-24T07:50:55;23.80;1.00
42663;DHT22;44330;51.360;6.686;2023-08-24T07:53:24;23.90;1.00
42663;DHT22;44330;51.360;6.686;2023-08-24T07:55:53;24.20;1.00
42663;DHT22;44330;51.360;6.686;2023-08-24T07:58:22;24.40;99.90
42663;DHT22;44330;51.360;6.686;2023-08-24T08:00:51;24.50;99.90
42663;DHT22;44330;51.360;6.686;2023-08-24T08:03:17;24.80;99.90
42663;DHT22;44330;51.360;6.686;2023-08-24T08:05:44;24.90;99.90
42663;DHT22;44330;51.360;6.686;2023-08-24T08:08:10;25.10;99.90
42663;DHT22;44330;51.360;6.686;2023-08-24T08:10:35;25.30;99.90
42663;DHT22;44330;51.360;6.686;2023-08-24T08:13:01;25.40;1.00
42663;DHT22;44330;51.360;6.686;2023-08-24T08:15:34;25.70;1.00
42663;DHT22;44330;51.360;6.686;2023-08-24T08:18:04;25.80;1.00
42663;DHT22;44330;51.360;6.686;2023-08-24T08:20:30;26.00;99.90
42663;DHT22;44330;51.360;6.686;2023-08-24T08:22:56;26.10;66.10
42663;DHT22;44330;51.360;6.686;2023-08-24T08:25:21;26.30;89.90
42663;DHT22;44330;51.360;6.686;2023-08-24T08:27:48;26.30;99.90
42663;DHT22;44330;51.360;6.686;2023-08-24T08:30:14;26.50;58.80
42663;DHT22;44330;51.360;6.686;2023-08-24T08:32:41;26.40;1.00
42663;DHT22;44330;51.360;6.686;2023-08-24T08:35:09;26.50;99.90
42663;DHT22;44330;51.360;6.686;2023-08-24T08:37:39;26.60;1.00
42663;DHT22;44330;51.360;6.686;2023-08-24T08:40:08;26.60;99.90
42663;DHT22;44330;51.360;6.686;2023-08-24T08:42:34;26.70;1.00
42663;DHT22;44330;51.360;6.686;2023-08-24T08:45:00;26.80;99.90
42663;DHT22;44330;51.360;6.686;2023-08-24T08:47:28;26.80;99.90
42663;DHT22;44330;51.360;6.686;2023-08-24T08:49:54;27.00;99.90
42663;DHT22;44330;51.360;6.686;2023-08-24T08:52:20;27.20;98.00
42663;DHT22;44330;51.360;6.686;2023-08-24T08:54:46;27.30;99.90
42663;DHT22;44330;51.360;6.686;2023-08-24T08:57:11;27.30;99.90
42663;DHT22;44330;51.360;6.686;2023-08-24T08:59:37;27.40;1.00
42663;DHT22;44330;51.360;6.686;2023-08-24T09:02:03;27.50;95.90
42663;DHT22;44330;51.360;6.686;2023-08-24T09:04:31;27.80;1.00
42663;DHT22;44330;51.360;6.686;2023-08-24T09:06:57;28.00;1.00
42663;DHT22;44330;51.360;6.686;2023-08-24T09:09:24;28.10;99.90
42663;DHT22;44330;51.360;6.686;2023-08-24T09:11:49;28.20;99.90
42663;DHT22;44330;51.360;6.686;2023-08-24T09:14:17;28.40;1.00
42663;DHT22;44330;51.360;6.686;2023-08-24T09:16:45;28.50;1.00
42663;DHT22;44330;51.360;6.686;2023-08-24T09:19:11;28.70;99.90
42663;DHT22;44330;51.360;6.686;2023-08-24T09:21:38;28.80;2.20
42663;DHT22;44330;51.360;6.686;2023-08-24T09:26:59;28.90;99.90
42663;DHT22;44330;51.360;6.686;2023-08-24T09:29:25;28.80;99.90
42663;DHT22;44330;51.360;6.686;2023-08-24T09:31:51;28.90;99.90
42663;DHT22;44330;51.360;6.686;2023-08-24T09:34:20;29.10;1.00
42663;DHT22;44330;51.360;6.686;2023-08-24T09:36:46;29.20;1.00
42663;DHT22;44330;51.360;6.686;2023-08-24T09:39:12;29.20;99.90
42663;DHT22;44330;51.360;6.686;2023-08-24T09:41:45;29.20;99.90
42663;DHT22;44330;51.360;6.686;2023-08-24T09:44:11;29.30;99.90
42663;DHT22;44330;51.360;6.686;2023-08-24T09:46:37;29.40;99.90
42663;DHT22;44330;51.360;6.686;2023-08-24T09:49:04;29.40;99.90
42663;DHT22;44330;51.360;6.686;2023-08-24T09:51:30;29.40;99.90
42663;DHT22;44330;51.360;6.686;2023-08-24T09:53:57;29.30;93.20
42663;DHT22;44330;51.360;6.686;2023-08-24T09:56:24;29.40;99.90
42663;DHT22;44330;51.360;6.686;2023-08-24T09:58:52;29.40;99.90
42663;DHT22;44330;51.360;6.686;2023-08-24T10:01:19;29.40;1.00
42663;DHT22;44330;51.360;6.686;2023-08-24T10:03:45;29.20;99.90
42663;DHT22;44330;51.360;6.686;2023-08-24T10:06:11;29.30;99.90
42663;DHT22;44330;51.360;6.686;2023-08-24T10:08:39;29.30;99.90
42663;DHT22;44330;51.360;6.686;2023-08-24T10:11:08;29.40;99.80
42663;DHT22;44330;51.360;6.686;2023-08-24T10:13:38;29.40;99.90
42663;DHT22;44330;51.360;6.686;2023-08-24T10:16:04;29.50;99.90
42663;DHT22;44330;51.360;6.686;2023-08-24T10:18:30;29.60;99.90
42663;DHT22;44330;51.360;6.686;2023-08-24T10:20:56;29.70;99.90
42663;DHT22;44330;51.360;6.686;2023-08-24T10:23:22;29.80;99.90
42663;DHT22;44330;51.360;6.686;2023-08-24T10:25:48;29.90;99.90
42663;DHT22;44330;51.360;6.686;2023-08-24T10:28:16;30.00;62.70
42663;DHT22;44330;51.360;6.686;2023-08-24T10:30:42;30.10;99.90
42663;DHT22;44330;51.360;6.686;2023-08-24T10:33:10;30.10;5.60
42663;DHT22;44330;51.360;6.686;2023-08-24T10:35:36;30.10;99.90
42663;DHT22;44330;51.360;6.686;2023-08-24T10:38:02;30.20;76.90
42663;DHT22;44330;51.360;6.686;2023-08-24T10:42:57;30.50;1.00
42663;DHT22;44330;51.360;6.686;2023-08-24T10:45:24;30.50;1.00
42663;DHT22;44330;51.360;6.686;2023-08-24T10:47:51;30.60;18.90
42663;DHT22;44330;51.360;6.686;2023-08-24T10:50:21;30.60;1.00
42663;DHT22;44330;51.360;6.686;2023-08-24T10:52:47;30.60;7.00
42663;DHT22;44330;51.360;6.686;2023-08-24T10:55:25;30.60;1.00
42663;DHT22;44330;51.360;6.686;2023-08-24T10:57:55;30.60;1.00
42663;DHT22;44330;51.360;6.686;2023-08-24T11:00:21;30.50;1.00
42663;DHT22;44330;51.360;6.686;2023-08-24T11:02:51;30.50;1.00
42663;DHT22;44330;51.360;6.686;2023-08-24T11:05:20;30.40;1.00
42663;DHT22;44330;51.360;6.686;2023-08-24T11:08:00;30.20;1.00
42663;DHT22;44330;51.360;6.686;2023-08-24T11:10:30;30.10;1.00
42663;DHT22;44330;51.360;6.686;2023-08-24T11:15:34;29.90;1.00
42663;DHT22;44330;51.360;6.686;2023-08-24T11:18:21;29.80;70.00
42663;DHT22;44330;51.360;6.686;2023-08-24T11:20:54;29.70;60.90
42663;DHT22;44330;51.360;6.686;2023-08-24T11:28:55;29.60;99.90
42663;DHT22;44330;51.360;6.686;2023-08-24T11:31:26;29.60;99.90
42663;DHT22;44330;51.360;6.686;2023-08-24T11:34:04;29.50;99.90
42663;DHT22;44330;51.360;6.686;2023-08-24T11:44:27;29.10;99.90
42663;DHT22;44330;51.360;6.686;2023-08-24T11:46:53;29.00;99.90
42663;DHT22;44330;51.360;6.686;2023-08-24T11:54:58;28.90;99.90
42663;DHT22;44330;51.360;6.686;2023-08-24T12:00:20;29.00;99.90
42663;DHT22;44330;51.360;6.686;2023-08-24T12:02:47;29.10;1.00
42663;DHT22;44330;51.360;6.686;2023-08-24T12:05:25;29.10;99.90
42663;DHT22;44330;51.360;6.686;2023-08-24T12:07:53;29.20;1.00
42663;DHT22;44330;51.360;6.686;2023-08-24T12:16:23;29.10;99.90
42663;DHT22;44330;51.360;6.686;2023-08-24T12:24:49;28.90;92.30
42663;DHT22;44330;51.360;6.686;2023-08-24T12:27:20;28.70;99.90
42663;DHT22;44330;51.360;6.686;2023-08-24T12:29:46;28.60;99.90
42663;DHT22;44330;51.360;6.686;2023-08-24T12:32:12;28.40;99.90
42663;DHT22;44330;51.360;6.686;2023-08-24T12:34:40;28.20;99.90
42663;DHT22;44330;51.360;6.686;2023-08-24T12:39:48;27.70;99.90
42663;DHT22;44330;51.360;6.686;2023-08-24T12:42:34;27.40;97.10
42663;DHT22;44330;51.360;6.686;2023-08-24T12:44:59;27.10;99.90
42663;DHT22;44330;51.360;6.686;2023-08-24T12:47:25;26.80;99.90
42663;DHT22;44330;51.360;6.686;2023-08-24T12:49:51;26.60;99.90
42663;DHT22;44330;51.360;6.686;2023-08-24T12:52:18;26.50;99.90
42663;DHT22;44330;51.360;6.686;2023-08-24T12:54:43;26.40;99.90
42663;DHT22;44330;51.360;6.686;2023-08-24T12:57:09;26.30;99.90
42663;DHT22;44330;51.360;6.686;2023-08-24T12:59:34;26.30;99.90
42663;DHT22;44330;51.360;6.686;2023-08-24T13:02:00;26.30;99.90
42663;DHT22;44330;51.360;6.686;2023-08-24T13:04:26;26.20;99.90
42663;DHT22;44330;51.360;6.686;2023-08-24T13:06:53;26.10;99.90
42663;DHT22;44330;51.360;6.686;2023-08-24T13:09:18;26.00;99.90
42663;DHT22;44330;51.360;6.686;2023-08-24T13:11:44;26.00;99.90
42663;DHT22;44330;51.360;6.686;2023-08-24T13:14:10;26.10;99.90
42663;DHT22;44330;51.360;6.686;2023-08-24T13:16:35;26.10;99.90
42663;DHT22;44330;51.360;6.686;2023-08-24T13:19:00;26.10;99.90
42663;DHT22;44330;51.360;6.686;2023-08-24T13:21:26;26.20;99.90
42663;DHT22;44330;51.360;6.686;2023-08-24T13:23:52;26.20;99.90
42663;DHT22;44330;51.360;6.686;2023-08-24T13:26:21;26.20;99.90
42663;DHT22;44330;51.360;6.686;2023-08-24T13:28:47;26.20;99.90
42663;DHT22;44330;51.360;6.686;2023-08-24T13:31:12;26.30;99.90
42663;DHT22;44330;51.360;6.686;2023-08-24T13:33:38;26.20;99.90
42663;DHT22;44330;51.360;6.686;2023-08-24T13:36:04;26.30;99.90
42663;DHT22;44330;51.360;6.686;2023-08-24T13:38:30;26.30;99.90
42663;DHT22;44330;51.360;6.686;2023-08-24T13:40:55;26.30;99.90
42663;DHT22;44330;51.360;6.686;2023-08-24T13:43:21;26.40;99.90
42663;DHT22;44330;51.360;6.686;2023-08-24T13:45:46;26.40;99.90
42663;DHT22;44330;51.360;6.686;2023-08-24T13:48:12;26.40;99.90
42663;DHT22;44330;51.360;6.686;2023-08-24T13:50:38;26.40;99.90
42663;DHT22;44330;51.360;6.686;2023-08-24T13:53:05;26.30;99.90
42663;DHT22;44330;51.360;6.686;2023-08-24T13:55:31;26.30;99.90
42663;DHT22;44330;51.360;6.686;2023-08-24T13:57:57;26.20;99.90
42663;DHT22;44330;51.360;6.686;2023-08-24T14:00:23;26.20;99.90
42663;DHT22;44330;51.360;6.686;2023-08-24T14:02:48;26.10;1.00
42663;DHT22;44330;51.360;6.686;2023-08-24T14:05:14;26.10;1.00
42663;DHT22;44330;51.360;6.686;2023-08-24T14:07:40;26.10;1.00
42663;DHT22;44330;51.360;6.686;2023-08-24T14:10:06;26.10;1.00
42663;DHT22;44330;51.360;6.686;2023-08-24T14:12:34;26.20;1.00
42663;DHT22;44330;51.360;6.686;2023-08-24T14:15:00;26.20;1.00
42663;DHT22;44330;51.360;6.686;2023-08-24T14:17:25;26.20;1.00
42663;DHT22;44330;51.360;6.686;2023-08-24T14:19:53;26.20;1.00
42663;DHT22;44330;51.360;6.686;2023-08-24T14:22:18;26.10;1.00
42663;DHT22;44330;51.360;6.686;2023-08-24T14:24:44;26.10;1.00
42663;DHT22;44330;51.360;6.686;2023-08-24T14:27:09;26.10;1.00
42663;DHT22;44330;51.360;6.686;2023-08-24T14:29:35;26.10;1.00
42663;DHT22;44330;51.360;6.686;2023-08-24T14:32:00;26.10;1.00
42663;DHT22;44330;51.360;6.686;2023-08-24T14:34:26;26.10;1.00
42663;DHT22;44330;51.360;6.686;2023-08-24T14:36:52;26.10;1.00
42663;DHT22;44330;51.360;6.686;2023-08-24T14:39:18;26.10;1.00
42663;DHT22;44330;51.360;6.686;2023-08-24T14:41:44;26.00;1.00
42663;DHT22;44330;51.360;6.686;2023-08-24T14:44:10;26.00;1.00
42663;DHT22;44330;51.360;6.686;2023-08-24T14:46:35;25.90;1.00
42663;DHT22;44330;51.360;6.686;2023-08-24T14:49:01;25.90;1.00
42663;DHT22;44330;51.360;6.686;2023-08-24T14:51:26;25.80;1.00
42663;DHT22;44330;51.360;6.686;2023-08-24T14:53:52;25.70;1.00
42663;DHT22;44330;51.360;6.686;2023-08-24T14:56:17;25.60;1.00
42663;DHT22;44330;51.360;6.686;2023-08-24T14:58:43;25.60;1.00
42663;DHT22;44330;51.360;6.686;2023-08-24T15:01:09;25.50;1.00
42663;DHT22;44330;51.360;6.686;2023-08-24T15:03:35;25.40;1.00
42663;DHT22;44330;51.360;6.686;2023-08-24T15:06:02;25.40;1.00
42663;DHT22;44330;51.360;6.686;2023-08-24T15:08:31;25.30;1.00
42663;DHT22;44330;51.360;6.686;2023-08-24T15:10:57;25.20;1.00
42663;DHT22;44330;51.360;6.686;2023-08-24T15:13:23;25.00;1.00
42663;DHT22;44330;51.360;6.686;2023-08-24T15:15:50;24.90;4.40
42663;DHT22;44330;51.360;6.686;2023-08-24T15:18:16;24.80;6.00
42663;DHT22;44330;51.360;6.686;2023-08-24T15:20:42;24.70;4.30
42663;DHT22;44330;51.360;6.686;2023-08-24T15:23:07;24.70;1.00
42663;DHT22;44330;51.360;6.686;2023-08-24T15:25:33;24.50;1.00
42663;DHT22;44330;51.360;6.686;2023-08-24T15:28:01;24.40;1.00
42663;DHT22;44330;51.360;6.686;2023-08-24T15:30:30;24.30;1.00
42663;DHT22;44330;51.360;6.686;2023-08-24T15:32:55;24.20;1.00
42663;DHT22;44330;51.360;6.686;2023-08-24T15:35:21;24.00;12.00
42663;DHT22;44330;51.360;6.686;2023-08-24T15:37:50;23.90;18.00
42663;DHT22;44330;51.360;6.686;2023-08-24T15:40:16;23.90;22.20
42663;DHT22;44330;51.360;6.686;2023-08-24T15:42:41;23.80;29.20
42663;DHT22;44330;51.360;6.686;2023-08-24T15:45:10;23.70;33.20
42663;DHT22;44330;51.360;6.686;2023-08-24T15:50:05;23.60;35.60
42663;DHT22;44330;51.360;6.686;2023-08-24T15:52:31;23.50;30.50
42663;DHT22;44330;51.360;6.686;2023-08-24T15:55:20;23.50;36.80
42663;DHT22;44330;51.360;6.686;2023-08-24T15:57:45;23.30;41.60
42663;DHT22;44330;51.360;6.686;2023-08-24T16:00:12;23.20;47.00
42663;DHT22;44330;51.360;6.686;2023-08-24T16:02:42;23.20;50.20
42663;DHT22;44330;51.360;6.686;2023-08-24T16:05:10;23.10;53.10
42663;DHT22;44330;51.360;6.686;2023-08-24T16:10:38;23.00;59.20
42663;DHT22;44330;51.360;6.686;2023-08-24T16:13:06;22.90;46.90
42663;DHT22;44330;51.360;6.686;2023-08-24T16:15:32;22.90;46.70
42663;DHT22;44330;51.360;6.686;2023-08-24T16:17:57;22.80;50.80
42663;DHT22;44330;51.360;6.686;2023-08-24T16:23:17;22.70;56.10
42663;DHT22;44330;51.360;6.686;2023-08-24T16:25:43;22.70;59.90